sensor_id;sensor_type;location;lat;lon;timestamp;temperature;humidity
78325;DHT22;67584;51.400;6.692;2023-04-25T00:02:04;5.70;84.10
78325;DHT22;67584;51.400;6.692;2023-04-25T00:04:30;5.60;83.80
78325;DHT22;67584;51.400;6.692;2023-04-25T00:06:59;5.90;84.30
78325;DHT22;67584;51.400;6.692;2023-04-25T00:09:27;5.70;84.60
78325;DHT22;67584;51.400;6.692;2023-04-25T00:11:53;5.80;85.10
78325;DHT22;67584;51.400;6.692;2023-04-25T00:14:18;5.60;84.70
78325;DHT22;67584;51.400;6.692;2023-04-25T00:16:44;5.90;84.70
78325;DHT22;67584;51.400;6.692;2023-04-25T00:19:10;6.00;84.70
78325;DHT22;67584;51.400;6.692;2023-04-25T00:21:36;5.90;85.10
78325;DHT22;67584;51.400;6.692;2023-04-25T00:24:03;5.70;84.70
78325;DHT22;67584;51.400;6.692;2023-04-25T00:26:29;5.90;84.60
78325;DHT22;67584;51.400;6.692;2023-04-25T00:28:54;5.90;84.70
78325;DHT22;67584;51.400;6.692;2023-04-25T00:31:21;6.00;84.50
78325;DHT22;67584;51.400;6.692;2023-04-25T00:33:47;5.80;84.10
78325;DHT22;67584;51.400;6.692;2023-04-25T00:36:13;6.10;83.90
78325;DHT22;67584;51.400;6.692;2023-04-25T00:38:40;6.10;84.10
78325;DHT22;67584;51.400;6.692;2023-04-25T00:41:07;6.00;83.70
78325;DHT22;67584;51.400;6.692;2023-04-25T00:43:33;6.10;83.80
78325;DHT22;67584;51.400;6.692;2023-04-25T00:46:00;6.20;83.50
78325;DHT22;67584;51.400;6.692;2023-04-25T00:48:26;6.30;83.80
78325;DHT22;67584;51.400;6.692;2023-04-25T00:50:54;6.40;83.30
78325;DHT22;67584;51.400;6.692;2023-04-25T00:53:21;6.20;83.30
78325;DHT22;67584;51.400;6.692;2023-04-25T00:55:47;6.40;83.20
78325;DHT22;67584;51.400;6.692;2023-04-25T00:58:19;6.40;83.20
78325;DHT22;67584;51.400;6.692;2023-04-25T01:00:46;6.40;83.60
78325;DHT22;67584;51.400;6.692;2023-04-25T01:03:14;6.60;83.10
78325;DHT22;67584;51.400;6.692;2023-04-25T01:05:42;6.50;83.10
78325;DHT22;67584;51.400;6.692;2023-04-25T01:08:08;6.50;83.10
78325;DHT22;67584;51.400;6.692;2023-04-25T01:10:34;6.40;83.10
78325;DHT22;67584;51.400;6.692;2023-04-25T01:12:59;6.50;83.20
78325;DHT22;67584;51.400;6.692;2023-04-25T01:15:25;6.40;83.50
78325;DHT22;67584;51.400;6.692;2023-04-25T01:17:51;6.30;83.40
78325;DHT22;67584;51.400;6.692;2023-04-25T01:20:21;6.60;83.30
78325;DHT22;67584;51.400;6.692;2023-04-25T01:22:49;6.50;83.00
78325;DHT22;67584;51.400;6.692;2023-04-25T01:25:15;6.50;82.70
78325;DHT22;67584;51.400;6.692;2023-04-25T01:27:42;6.50;82.70
78325;DHT22;67584;51.400;6.692;2023-04-25T01:30:09;6.30;83.00
78325;DHT22;67584;51.400;6.692;2023-04-25T01:32:35;6.40;83.10
78325;DHT22;67584;51.400;6.692;2023-04-25T01:35:09;6.60;83.30
78325;DHT22;67584;51.400;6.692;2023-04-25T01:37:42;6.50;83.90
78325;DHT22;67584;51.400;6.692;2023-04-25T01:40:11;6.50;83.60
78325;DHT22;67584;51.400;6.692;2023-04-25T01:42:40;6.50;83.50
78325;DHT22;67584;51.400;6.692;2023-04-25T01:45:07;6.40;83.20
78325;DHT22;67584;51.400;6.692;2023-04-25T01:47:33;6.70;83.00
78325;DHT22;67584;51.400;6.692;2023-04-25T01:50:01;6.70;83.40
78325;DHT22;67584;51.400;6.692;2023-04-25T01:52:27;6.30;83.50
78325;DHT22;67584;51.400;6.692;2023-04-25T01:54:53;6.60;83.30
78325;DHT22;67584;51.400;6.692;2023-04-25T01:57:19;6.50;83.20
78325;DHT22;67584;51.400;6.692;2023-04-25T01:59:45;6.50;83.20
78325;DHT22;67584;51.400;6.692;2023-04-25T02:02:30;6.70;83.40
78325;DHT22;67584;51.400;6.692;2023-04-25T02:04:56;6.30;83.50
78325;DHT22;67584;51.400;6.692;2023-04-25T02:07:24;6.60;83.80
78325;DHT22;67584;51.400;6.692;2023-04-25T02:09:52;6.50;83.50
78325;DHT22;67584;51.400;6.692;2023-04-25T02:12:22;6.30;83.70
78325;DHT22;67584;51.400;6.692;2023-04-25T02:15:07;6.20;83.90
78325;DHT22;67584;51.400;6.692;2023-04-25T02:17:40;6.30;84.10
78325;DHT22;67584;51.400;6.692;2023-04-25T02:20:06;6.50;84.10
78325;DHT22;67584;51.400;6.692;2023-04-25T02:22:32;6.40;83.90
78325;DHT22;67584;51.400;6.692;2023-04-25T02:24:59;6.40;84.30
78325;DHT22;67584;51.400;6.692;2023-04-25T02:27:25;6.40;84.30
78325;DHT22;67584;51.400;6.692;2023-04-25T02:29:50;6.30;84.30
78325;DHT22;67584;51.400;6.692;2023-04-25T02:32:16;6.10;84.50
78325;DHT22;67584;51.400;6.692;2023-04-25T02:34:41;6.30;84.60
78325;DHT22;67584;51.400;6.692;2023-04-25T02:37:07;6.10;85.00
78325;DHT22;67584;51.400;6.692;2023-04-25T02:39:33;6.20;85.10
78325;DHT22;67584;51.400;6.692;2023-04-25T02:41:58;6.20;85.20
78325;DHT22;67584;51.400;6.692;2023-04-25T02:44:24;6.00;85.30
78325;DHT22;67584;51.400;6.692;2023-04-25T02:46:50;6.10;85.40
78325;DHT22;67584;51.400;6.692;2023-04-25T02:49:16;5.90;85.60
78325;DHT22;67584;51.400;6.692;2023-04-25T02:51:42;5.90;85.90
78325;DHT22;67584;51.400;6.692;2023-04-25T02:54:07;5.90;85.80
78325;DHT22;67584;51.400;6.692;2023-04-25T02:56:37;6.00;86.40
78325;DHT22;67584;51.400;6.692;2023-04-25T02:59:07;6.00;86.10
78325;DHT22;67584;51.400;6.692;2023-04-25T03:01:34;6.00;85.90
78325;DHT22;67584;51.400;6.692;2023-04-25T03:04:00;6.00;85.70
78325;DHT22;67584;51.400;6.692;2023-04-25T03:06:25;5.90;85.60
78325;DHT22;67584;51.400;6.692;2023-04-25T03:08:51;6.00;85.70
78325;DHT22;67584;51.400;6.692;2023-04-25T03:11:17;6.10;85.90
78325;DHT22;67584;51.400;6.692;2023-04-25T03:13:45;6.00;85.80
78325;DHT22;67584;51.400;6.692;2023-04-25T03:16:11;5.80;86.00
78325;DHT22;67584;51.400;6.692;2023-04-25T03:18:37;5.70;86.50
78325;DHT22;67584;51.400;6.692;2023-04-25T03:21:03;5.70;86.70
78325;DHT22;67584;51.400;6.692;2023-04-25T03:23:30;5.60;86.90
78325;DHT22;67584;51.400;6.692;2023-04-25T03:25:56;5.60;87.10
78325;DHT22;67584;51.400;6.692;2023-04-25T03:28:22;5.40;87.10
78325;DHT22;67584;51.400;6.692;2023-04-25T03:30:47;5.80;87.30
78325;DHT22;67584;51.400;6.692;2023-04-25T03:33:13;5.50;87.40
78325;DHT22;67584;51.400;6.692;2023-04-25T03:35:39;5.70;87.30
78325;DHT22;67584;51.400;6.692;2023-04-25T03:38:05;5.60;87.40
78325;DHT22;67584;51.400;6.692;2023-04-25T03:40:35;5.70;87.00
78325;DHT22;67584;51.400;6.692;2023-04-25T03:43:13;5.80;86.90
78325;DHT22;67584;51.400;6.692;2023-04-25T03:45:43;5.60;87.10
78325;DHT22;67584;51.400;6.692;2023-04-25T03:48:09;5.70;86.80
78325;DHT22;67584;51.400;6.692;2023-04-25T03:50:34;5.80;87.00
78325;DHT22;67584;51.400;6.692;2023-04-25T03:53:00;5.70;86.90
78325;DHT22;67584;51.400;6.692;2023-04-25T03:55:29;5.70;86.90
78325;DHT22;67584;51.400;6.692;2023-04-25T03:57:55;5.70;87.10
78325;DHT22;67584;51.400;6.692;2023-04-25T04:00:21;5.80;87.30
78325;DHT22;67584;51.400;6.692;2023-04-25T04:02:51;5.70;87.30
78325;DHT22;67584;51.400;6.692;2023-04-25T04:05:17;5.70;86.80
78325;DHT22;67584;51.400;6.692;2023-04-25T04:07:49;5.60;87.10
78325;DHT22;67584;51.400;6.692;2023-04-25T04:10:16;5.60;87.50
78325;DHT22;67584;51.400;6.692;2023-04-25T04:12:43;5.40;87.60
78325;DHT22;67584;51.400;6.692;2023-04-25T04:15:09;5.30;87.90
78325;DHT22;67584;51.400;6.692;2023-04-25T04:17:35;5.20;88.10
78325;DHT22;67584;51.400;6.692;2023-04-25T04:20:01;5.30;88.40
78325;DHT22;67584;51.400;6.692;2023-04-25T04:22:30;5.20;88.90
78325;DHT22;67584;51.400;6.692;2023-04-25T04:24:59;4.90;88.90
78325;DHT22;67584;51.400;6.692;2023-04-25T04:27:47;4.90;88.40
78325;DHT22;67584;51.400;6.692;2023-04-25T04:30:25;4.90;88.30
78325;DHT22;67584;51.400;6.692;2023-04-25T04:32:56;5.00;88.50
78325;DHT22;67584;51.400;6.692;2023-04-25T04:35:23;4.90;88.70
78325;DHT22;67584;51.400;6.692;2023-04-25T04:37:50;5.10;88.60
78325;DHT22;67584;51.400;6.692;2023-04-25T04:40:17;4.90;88.90
78325;DHT22;67584;51.400;6.692;2023-04-25T04:42:53;4.80;88.90
78325;DHT22;67584;51.400;6.692;2023-04-25T04:45:27;4.90;88.70
78325;DHT22;67584;51.400;6.692;2023-04-25T04:48:12;4.80;88.90
78325;DHT22;67584;51.400;6.692;2023-04-25T04:51:05;4.80;89.10
78325;DHT22;67584;51.400;6.692;2023-04-25T04:53:50;4.80;89.30
78325;DHT22;67584;51.400;6.692;2023-04-25T04:56:29;4.70;88.90
78325;DHT22;67584;51.400;6.692;2023-04-25T04:59:13;4.80;88.50
78325;DHT22;67584;51.400;6.692;2023-04-25T05:01:45;4.70;88.50
78325;DHT22;67584;51.400;6.692;2023-04-25T05:04:41;4.70;89.00
78325;DHT22;67584;51.400;6.692;2023-04-25T05:07:19;4.80;89.00
78325;DHT22;67584;51.400;6.692;2023-04-25T05:10:20;4.70;88.90
78325;DHT22;67584;51.400;6.692;2023-04-25T05:12:55;4.90;88.70
78325;DHT22;67584;51.400;6.692;2023-04-25T05:15:23;4.80;88.30
78325;DHT22;67584;51.400;6.692;2023-04-25T05:17:51;4.90;88.20
78325;DHT22;67584;51.400;6.692;2023-04-25T05:20:30;4.90;87.70
78325;DHT22;67584;51.400;6.692;2023-04-25T05:22:56;5.00;87.50
78325;DHT22;67584;51.400;6.692;2023-04-25T05:25:39;5.10;87.50
78325;DHT22;67584;51.400;6.692;2023-04-25T05:28:13;5.00;86.90
78325;DHT22;67584;51.400;6.692;2023-04-25T05:30:58;5.10;86.30
78325;DHT22;67584;51.400;6.692;2023-04-25T05:33:41;5.20;85.90
78325;DHT22;67584;51.400;6.692;2023-04-25T05:36:07;5.50;85.40
78325;DHT22;67584;51.400;6.692;2023-04-25T05:38:33;5.70;84.90
78325;DHT22;67584;51.400;6.692;2023-04-25T05:41:17;6.00;83.90
78325;DHT22;67584;51.400;6.692;2023-04-25T05:43:48;6.00;82.70
78325;DHT22;67584;51.400;6.692;2023-04-25T05:46:43;6.10;82.70
78325;DHT22;67584;51.400;6.692;2023-04-25T05:49:34;6.00;82.30
78325;DHT22;67584;51.400;6.692;2023-04-25T05:52:12;6.30;81.80
78325;DHT22;67584;51.400;6.692;2023-04-25T05:54:46;6.30;81.10
